sensor_id;sensor_type;location;lat;lon;timestamp;P1;durP1;ratioP1;P2;durP2;ratioP2
66494;SDS011;53319;51.982;5.916;2022-07-23T00:00:03;7.50;;;4.00;;
66494;SDS011;53319;51.982;5.916;2022-07-23T00:02:33;6.72;;;3.70;;
66494;SDS011;53319;51.982;5.916;2022-07-23T00:05:02;7.40;;;4.03;;
66494;SDS011;53319;51.982;5.916;2022-07-23T00:07:32;6.35;;;4.13;;
66494;SDS011;53319;51.982;5.916;2022-07-23T00:10:01;6.53;;;3.80;;
66494;SDS011;53319;51.982;5.916;2022-07-23T00:12:29;6.63;;;4.30;;
66494;SDS011;53319;51.982;5.916;2022-07-23T00:14:58;11.05;;;4.90;;
66494;SDS011;53319;51.982;5.916;2022-07-23T00:17:30;6.40;;;4.53;;
66494;SDS011;53319;51.982;5.916;2022-07-23T00:19:59;7.22;;;4.55;;
66494;SDS011;53319;51.982;5.916;2022-07-23T00:22:28;8.75;;;4.18;;
66494;SDS011;53319;51.982;5.916;2022-07-23T00:24:57;6.85;;;4.13;;
66494;SDS011;53319;51.982;5.916;2022-07-23T00:27:26;7.13;;;4.32;;
66494;SDS011;53319;51.982;5.916;2022-07-23T00:29:55;5.78;;;4.00;;
66494;SDS011;53319;51.982;5.916;2022-07-23T00:32:24;7.03;;;4.15;;
66494;SDS011;53319;51.982;5.916;2022-07-23T00:34:55;6.95;;;4.38;;
66494;SDS011;53319;51.982;5.916;2022-07-23T00:37:24;8.30;;;4.60;;
66494;SDS011;53319;51.982;5.916;2022-07-23T00:39:53;6.45;;;4.10;;
66494;SDS011;53319;51.982;5.916;2022-07-23T00:42:22;7.05;;;4.63;;
66494;SDS011;53319;51.982;5.916;2022-07-23T00:44:51;7.13;;;4.25;;
66494;SDS011;53319;51.982;5.916;2022-07-23T00:47:19;7.32;;;4.40;;
66494;SDS011;53319;51.982;5.916;2022-07-23T00:49:48;6.20;;;4.80;;
66494;SDS011;53319;51.982;5.916;2022-07-23T00:52:20;9.68;;;4.68;;
66494;SDS011;53319;51.982;5.916;2022-07-23T00:54:49;5.35;;;4.00;;
66494;SDS011;53319;51.982;5.916;2022-07-23T00:57:18;7.70;;;5.38;;
66494;SDS011;53319;51.982;5.916;2022-07-23T00:59:47;7.53;;;4.70;;
66494;SDS011;53319;51.982;5.916;2022-07-23T01:02:17;10.35;;;6.28;;
66494;SDS011;53319;51.982;5.916;2022-07-23T01:04:46;9.40;;;5.35;;
66494;SDS011;53319;51.982;5.916;2022-07-23T01:07:15;8.30;;;5.53;;
66494;SDS011;53319;51.982;5.916;2022-07-23T01:09:47;7.05;;;4.68;;
66494;SDS011;53319;51.982;5.916;2022-07-23T01:12:18;7.90;;;4.60;;
66494;SDS011;53319;51.982;5.916;2022-07-23T01:14:53;5.22;;;4.45;;
66494;SDS011;53319;51.982;5.916;2022-07-23T01:17:22;11.13;;;5.20;;
66494;SDS011;53319;51.982;5.916;2022-07-23T01:19:52;8.07;;;5.18;;
66494;SDS011;53319;51.982;5.916;2022-07-23T01:22:21;6.82;;;4.55;;
66494;SDS011;53319;51.982;5.916;2022-07-23T01:24:54;7.30;;;5.20;;
66494;SDS011;53319;51.982;5.916;2022-07-23T01:27:24;8.38;;;4.68;;
66494;SDS011;53319;51.982;5.916;2022-07-23T01:29:59;9.10;;;4.93;;
66494;SDS011;53319;51.982;5.916;2022-07-23T01:32:29;7.75;;;5.35;;
66494;SDS011;53319;51.982;5.916;2022-07-23T01:34:58;8.35;;;4.68;;
66494;SDS011;53319;51.982;5.916;2022-07-23T01:37:27;7.43;;;4.75;;
66494;SDS011;53319;51.982;5.916;2022-07-23T01:39:58;10.45;;;4.95;;
66494;SDS011;53319;51.982;5.916;2022-07-23T01:42:27;10.52;;;5.07;;
66494;SDS011;53319;51.982;5.916;2022-07-23T01:44:57;10.18;;;4.65;;
66494;SDS011;53319;51.982;5.916;2022-07-23T01:47:25;5.95;;;4.68;;
66494;SDS011;53319;51.982;5.916;2022-07-23T01:49:55;7.75;;;4.70;;
66494;SDS011;53319;51.982;5.916;2022-07-23T01:52:40;7.13;;;5.00;;
66494;SDS011;53319;51.982;5.916;2022-07-23T01:55:12;6.53;;;4.70;;
66494;SDS011;53319;51.982;5.916;2022-07-23T01:57:43;7.65;;;4.88;;
66494;SDS011;53319;51.982;5.916;2022-07-23T02:00:13;6.63;;;4.40;;
66494;SDS011;53319;51.982;5.916;2022-07-23T02:02:47;6.63;;;4.40;;
66494;SDS011;53319;51.982;5.916;2022-07-23T02:05:16;6.82;;;4.50;;
66494;SDS011;53319;51.982;5.916;2022-07-23T02:07:45;9.25;;;4.15;;
66494;SDS011;53319;51.982;5.916;2022-07-23T02:10:17;8.18;;;4.43;;
66494;SDS011;53319;51.982;5.916;2022-07-23T02:12:46;7.75;;;4.28;;
66494;SDS011;53319;51.982;5.916;2022-07-23T02:15:15;6.55;;;4.18;;
66494;SDS011;53319;51.982;5.916;2022-07-23T02:17:43;6.85;;;4.47;;
66494;SDS011;53319;51.982;5.916;2022-07-23T02:20:12;6.75;;;4.80;;
66494;SDS011;53319;51.982;5.916;2022-07-23T02:22:43;6.80;;;4.35;;
66494;SDS011;53319;51.982;5.916;2022-07-23T02:25:12;9.15;;;3.90;;
66494;SDS011;53319;51.982;5.916;2022-07-23T02:27:44;8.25;;;4.38;;
66494;SDS011;53319;51.982;5.916;2022-07-23T02:30:13;11.40;;;5.05;;
66494;SDS011;53319;51.982;5.916;2022-07-23T02:32:42;7.22;;;4.45;;
66494;SDS011;53319;51.982;5.916;2022-07-23T02:35:11;8.55;;;4.90;;
66494;SDS011;53319;51.982;5.916;2022-07-23T02:37:40;10.85;;;4.60;;
66494;SDS011;53319;51.982;5.916;2022-07-23T02:40:10;7.00;;;4.50;;
66494;SDS011;53319;51.982;5.916;2022-07-23T02:42:41;10.05;;;4.30;;
66494;SDS011;53319;51.982;5.916;2022-07-23T02:45:13;7.55;;;4.22;;
66494;SDS011;53319;51.982;5.916;2022-07-23T02:47:42;6.57;;;3.72;;
66494;SDS011;53319;51.982;5.916;2022-07-23T02:50:11;6.55;;;3.88;;
66494;SDS011;53319;51.982;5.916;2022-07-23T02:52:40;7.28;;;4.20;;
66494;SDS011;53319;51.982;5.916;2022-07-23T02:55:10;8.90;;;4.10;;
66494;SDS011;53319;51.982;5.916;2022-07-23T02:57:39;8.57;;;3.80;;
66494;SDS011;53319;51.982;5.916;2022-07-23T03:00:11;7.05;;;3.95;;
66494;SDS011;53319;51.982;5.916;2022-07-23T03:02:40;7.63;;;3.55;;
66494;SDS011;53319;51.982;5.916;2022-07-23T03:05:10;8.18;;;3.97;;
66494;SDS011;53319;51.982;5.916;2022-07-23T03:07:38;9.57;;;3.88;;
66494;SDS011;53319;51.982;5.916;2022-07-23T03:10:08;5.72;;;4.13;;
66494;SDS011;53319;51.982;5.916;2022-07-23T03:12:37;8.50;;;3.63;;
66494;SDS011;53319;51.982;5.916;2022-07-23T03:15:07;8.38;;;4.15;;
66494;SDS011;53319;51.982;5.916;2022-07-23T03:17:39;7.07;;;3.63;;
66494;SDS011;53319;51.982;5.916;2022-07-23T03:20:09;6.03;;;3.60;;
66494;SDS011;53319;51.982;5.916;2022-07-23T03:22:38;9.88;;;3.70;;
66494;SDS011;53319;51.982;5.916;2022-07-23T03:25:08;6.60;;;3.47;;
66494;SDS011;53319;51.982;5.916;2022-07-23T03:27:38;6.97;;;3.80;;
66494;SDS011;53319;51.982;5.916;2022-07-23T03:30:09;8.40;;;3.85;;
66494;SDS011;53319;51.982;5.916;2022-07-23T03:32:41;6.78;;;3.55;;
66494;SDS011;53319;51.982;5.916;2022-07-23T03:35:10;6.85;;;3.28;;
66494;SDS011;53319;51.982;5.916;2022-07-23T03:37:48;4.63;;;3.45;;
66494;SDS011;53319;51.982;5.916;2022-07-23T03:40:17;5.32;;;2.97;;
66494;SDS011;53319;51.982;5.916;2022-07-23T03:42:46;8.77;;;4.22;;
66494;SDS011;53319;51.982;5.916;2022-07-23T03:45:14;6.20;;;3.28;;
66494;SDS011;53319;51.982;5.916;2022-07-23T03:47:46;4.20;;;2.92;;
66494;SDS011;53319;51.982;5.916;2022-07-23T03:50:15;7.07;;;2.88;;
66494;SDS011;53319;51.982;5.916;2022-07-23T03:52:44;6.85;;;3.30;;
66494;SDS011;53319;51.982;5.916;2022-07-23T03:55:13;5.53;;;3.47;;
66494;SDS011;53319;51.982;5.916;2022-07-23T03:57:42;7.75;;;3.10;;
66494;SDS011;53319;51.982;5.916;2022-07-23T04:00:12;4.90;;;3.15;;
66494;SDS011;53319;51.982;5.916;2022-07-23T04:02:43;5.07;;;3.00;;
66494;SDS011;53319;51.982;5.916;2022-07-23T04:05:15;3.95;;;3.20;;
66494;SDS011;53319;51.982;5.916;2022-07-23T04:07:47;5.07;;;3.22;;
66494;SDS011;53319;51.982;5.916;2022-07-23T04:10:17;5.97;;;3.20;;
66494;SDS011;53319;51.982;5.916;2022-07-23T04:12:49;5.32;;;3.25;;
66494;SDS011;53319;51.982;5.916;2022-07-23T04:15:18;7.32;;;3.40;;
66494;SDS011;53319;51.982;5.916;2022-07-23T04:17:47;8.18;;;3.50;;
66494;SDS011;53319;51.982;5.916;2022-07-23T04:20:21;5.75;;;3.00;;
66494;SDS011;53319;51.982;5.916;2022-07-23T04:22:55;6.05;;;3.50;;
66494;SDS011;53319;51.982;5.916;2022-07-23T04:25:24;4.95;;;2.85;;
66494;SDS011;53319;51.982;5.916;2022-07-23T04:27:53;5.30;;;3.13;;
66494;SDS011;53319;51.982;5.916;2022-07-23T04:30:22;5.70;;;3.28;;
66494;SDS011;53319;51.982;5.916;2022-07-23T04:32:52;6.43;;;3.20;;
66494;SDS011;53319;51.982;5.916;2022-07-23T04:35:28;5.65;;;2.95;;
66494;SDS011;53319;51.982;5.916;2022-07-23T04:38:08;5.68;;;3.50;;
66494;SDS011;53319;51.982;5.916;2022-07-23T04:40:37;12.27;;;7.40;;
66494;SDS011;53319;51.982;5.916;2022-07-23T04:43:06;7.53;;;4.65;;
66494;SDS011;53319;51.982;5.916;2022-07-23T04:45:41;6.00;;;3.53;;
66494;SDS011;53319;51.982;5.916;2022-07-23T04:48:10;6.88;;;3.28;;
66494;SDS011;53319;51.982;5.916;2022-07-23T04:50:42;5.88;;;3.15;;
66494;SDS011;53319;51.982;5.916;2022-07-23T04:53:22;5.72;;;2.85;;
66494;SDS011;53319;51.982;5.916;2022-07-23T04:55:54;6.80;;;3.00;;
66494;SDS011;53319;51.982;5.916;2022-07-23T04:58:23;5.57;;;2.90;;
66494;SDS011;53319;51.982;5.916;2022-07-23T05:00:52;7.38;;;3.45;;
66494;SDS011;53319;51.982;5.916;2022-07-23T05:03:23;6.18;;;3.08;;
66494;SDS011;53319;51.982;5.916;2022-07-23T05:05:55;4.03;;;2.80;;
66494;SDS011;53319;51.982;5.916;2022-07-23T05:08:24;7.90;;;3.00;;
66494;SDS011;53319;51.982;5.916;2022-07-23T05:10:56;3.55;;;2.92;;
66494;SDS011;53319;51.982;5.916;2022-07-23T05:13:24;3.92;;;2.75;;
66494;SDS011;53319;51.982;5.916;2022-07-23T05:15:53;6.78;;;3.00;;
66494;SDS011;53319;51.982;5.916;2022-07-23T05:18:23;4.43;;;2.67;;
66494;SDS011;53319;51.982;5.916;2022-07-23T05:20:55;6.68;;;3.50;;
66494;SDS011;53319;51.982;5.916;2022-07-23T05:23:24;5.88;;;2.70;;
66494;SDS011;53319;51.982;5.916;2022-07-23T05:25:53;5.65;;;2.10;;
66494;SDS011;53319;51.982;5.916;2022-07-23T05:28:23;4.57;;;2.60;;
66494;SDS011;53319;51.982;5.916;2022-07-23T05:30:53;5.15;;;2.47;;
66494;SDS011;53319;51.982;5.916;2022-07-23T05:33:23;5.47;;;2.33;;
66494;SDS011;53319;51.982;5.916;2022-07-23T05:35:52;5.43;;;2.42;;
66494;SDS011;53319;51.982;5.916;2022-07-23T05:38:30;3.95;;;2.20;;
66494;SDS011;53319;51.982;5.916;2022-07-23T05:41:01;7.25;;;2.53;;
66494;SDS011;53319;51.982;5.916;2022-07-23T05:43:31;4.97;;;2.22;;
66494;SDS011;53319;51.982;5.916;2022-07-23T05:46:06;5.32;;;2.35;;
66494;SDS011;53319;51.982;5.916;2022-07-23T05:48:37;6.95;;;2.63;;
66494;SDS011;53319;51.982;5.916;2022-07-23T05:51:13;3.65;;;2.10;;
66494;SDS011;53319;51.982;5.916;2022-07-23T05:53:44;4.13;;;1.80;;
66494;SDS011;53319;51.982;5.916;2022-07-23T05:56:18;5.15;;;2.10;;
66494;SDS011;53319;51.982;5.916;2022-07-23T05:58:47;4.28;;;2.03;;
66494;SDS011;53319;51.982;5.916;2022-07-23T06:01:17;4.05;;;2.05;;
66494;SDS011;53319;51.982;5.916;2022-07-23T06:03:59;4.45;;;2.15;;
66494;SDS011;53319;51.982;5.916;2022-07-23T06:06:34;19.50;;;3.03;;
66494;SDS011;53319;51.982;5.916;2022-07-23T06:09:05;5.15;;;2.03;;
66494;SDS011;53319;51.982;5.916;2022-07-23T06:11:37;6.57;;;2.17;;
66494;SDS011;53319;51.982;5.916;2022-07-23T06:14:06;5.13;;;2.30;;
66494;SDS011;53319;51.982;5.916;2022-07-23T06:16:48;4.72;;;2.55;;
66494;SDS011;53319;51.982;5.916;2022-07-23T06:19:17;3.38;;;2.00;;
66494;SDS011;53319;51.982;5.916;2022-07-23T06:21:46;4.43;;;2.40;;
66494;SDS011;53319;51.982;5.916;2022-07-23T06:24:19;3.88;;;2.47;;
66494;SDS011;53319;51.982;5.916;2022-07-23T06:26:49;8.25;;;2.85;;
66494;SDS011;53319;51.982;5.916;2022-07-23T06:29:18;4.60;;;2.50;;
66494;SDS011;53319;51.982;5.916;2022-07-23T06:31:47;5.15;;;2.38;;
66494;SDS011;53319;51.982;5.916;2022-07-23T06:34:16;5.82;;;3.03;;
66494;SDS011;53319;51.982;5.916;2022-07-23T06:36:45;4.80;;;3.00;;
66494;SDS011;53319;51.982;5.916;2022-07-23T06:39:14;6.10;;;3.10;;
66494;SDS011;53319;51.982;5.916;2022-07-23T06:41:49;6.93;;;2.97;;
66494;SDS011;53319;51.982;5.916;2022-07-23T06:44:19;4.30;;;2.60;;
66494;SDS011;53319;51.982;5.916;2022-07-23T06:46:48;3.30;;;2.63;;
66494;SDS011;53319;51.982;5.916;2022-07-23T06:49:17;3.47;;;2.38;;
66494;SDS011;53319;51.982;5.916;2022-07-23T06:51:46;5.13;;;2.33;;
66494;SDS011;53319;51.982;5.916;2022-07-23T06:54:15;4.18;;;2.58;;
66494;SDS011;53319;51.982;5.916;2022-07-23T06:56:44;4.38;;;2.70;;
66494;SDS011;53319;51.982;5.916;2022-07-23T06:59:17;8.23;;;2.70;;
66494;SDS011;53319;51.982;5.916;2022-07-23T07:01:46;5.25;;;2.45;;
66494;SDS011;53319;51.982;5.916;2022-07-23T07:04:15;4.88;;;2.45;;
66494;SDS011;53319;51.982;5.916;2022-07-23T07:06:44;4.68;;;2.40;;
66494;SDS011;53319;51.982;5.916;2022-07-23T07:09:13;4.38;;;2.65;;
66494;SDS011;53319;51.982;5.916;2022-07-23T07:11:42;6.60;;;2.70;;
66494;SDS011;53319;51.982;5.916;2022-07-23T07:14:11;4.38;;;2.80;;
66494;SDS011;53319;51.982;5.916;2022-07-23T07:16:42;9.90;;;3.03;;
66494;SDS011;53319;51.982;5.916;2022-07-23T07:19:11;6.63;;;2.90;;
66494;SDS011;53319;51.982;5.916;2022-07-23T07:21:40;4.30;;;2.67;;
66494;SDS011;53319;51.982;5.916;2022-07-23T07:24:09;5.38;;;2.58;;
66494;SDS011;53319;51.982;5.916;2022-07-23T07:26:38;5.95;;;2.60;;
66494;SDS011;53319;51.982;5.916;2022-07-23T07:29:07;6.00;;;3.03;;
66494;SDS011;53319;51.982;5.916;2022-07-23T07:31:36;4.53;;;2.42;;
66494;SDS011;53319;51.982;5.916;2022-07-23T07:34:07;5.60;;;2.45;;
66494;SDS011;53319;51.982;5.916;2022-07-23T07:36:36;4.63;;;2.60;;
66494;SDS011;53319;51.982;5.916;2022-07-23T07:39:05;6.50;;;2.80;;
66494;SDS011;53319;51.982;5.916;2022-07-23T07:41:36;5.53;;;2.90;;
66494;SDS011;53319;51.982;5.916;2022-07-23T07:44:05;7.40;;;2.80;;
66494;SDS011;53319;51.982;5.916;2022-07-23T07:46:34;4.82;;;2.30;;
66494;SDS011;53319;51.982;5.916;2022-07-23T07:49:02;3.75;;;2.60;;
66494;SDS011;53319;51.982;5.916;2022-07-23T07:51:34;6.60;;;2.63;;
66494;SDS011;53319;51.982;5.916;2022-07-23T07:54:03;3.50;;;2.65;;
66494;SDS011;53319;51.982;5.916;2022-07-23T07:56:32;6.90;;;2.55;;
66494;SDS011;53319;51.982;5.916;2022-07-23T07:59:01;4.63;;;2.63;;
66494;SDS011;53319;51.982;5.916;2022-07-23T08:01:30;5.65;;;2.35;;
66494;SDS011;53319;51.982;5.916;2022-07-23T08:03:58;2.90;;;2.22;;
66494;SDS011;53319;51.982;5.916;2022-07-23T08:06:27;6.80;;;2.72;;
66494;SDS011;53319;51.982;5.916;2022-07-23T08:08:59;6.32;;;2.47;;
66494;SDS011;53319;51.982;5.916;2022-07-23T08:11:28;6.32;;;2.40;;
66494;SDS011;53319;51.982;5.916;2022-07-23T08:13:57;6.00;;;2.38;;
66494;SDS011;53319;51.982;5.916;2022-07-23T08:16:25;4.15;;;2.30;;
66494;SDS011;53319;51.982;5.916;2022-07-23T08:18:54;4.72;;;2.50;;
66494;SDS011;53319;51.982;5.916;2022-07-23T08:21:23;3.47;;;2.40;;
66494;SDS011;53319;51.982;5.916;2022-07-23T08:23:52;5.32;;;2.25;;
66494;SDS011;53319;51.982;5.916;2022-07-23T08:26:24;3.33;;;2.40;;
66494;SDS011;53319;51.982;5.916;2022-07-23T08:28:52;4.65;;;2.22;;
66494;SDS011;53319;51.982;5.916;2022-07-23T08:31:21;3.03;;;2.17;;
66494;SDS011;53319;51.982;5.916;2022-07-23T08:33:50;6.90;;;2.28;;
66494;SDS011;53319;51.982;5.916;2022-07-23T08:36:20;4.90;;;2.67;;
66494;SDS011;53319;51.982;5.916;2022-07-23T08:38:49;7.10;;;2.30;;
66494;SDS011;53319;51.982;5.916;2022-07-23T08:41:18;5.63;;;2.90;;
66494;SDS011;53319;51.982;5.916;2022-07-23T08:43:50;6.55;;;2.58;;
66494;SDS011;53319;51.982;5.916;2022-07-23T08:46:20;3.47;;;2.20;;
66494;SDS011;53319;51.982;5.916;2022-07-23T08:48:49;3.22;;;2.22;;
66494;SDS011;53319;51.982;5.916;2022-07-23T08:51:19;4.10;;;2.47;;
66494;SDS011;53319;51.982;5.916;2022-07-23T08:53:49;6.20;;;2.33;;
66494;SDS011;53319;51.982;5.916;2022-07-23T08:56:18;3.10;;;2.10;;
66494;SDS011;53319;51.982;5.916;2022-07-23T08:58:47;3.65;;;2.40;;
66494;SDS011;53319;51.982;5.916;2022-07-23T09:01:19;3.97;;;2.33;;
66494;SDS011;53319;51.982;5.916;2022-07-23T09:03:48;6.28;;;2.45;;
66494;SDS011;53319;51.982;5.916;2022-07-23T09:06:17;4.70;;;2.45;;
66494;SDS011;53319;51.982;5.916;2022-07-23T09:08:45;6.32;;;2.75;;
66494;SDS011;53319;51.982;5.916;2022-07-23T09:11:15;4.18;;;2.20;;
66494;SDS011;53319;51.982;5.916;2022-07-23T09:13:46;4.22;;;2.72;;
66494;SDS011;53319;51.982;5.916;2022-07-23T09:16:16;8.15;;;2.88;;
66494;SDS011;53319;51.982;5.916;2022-07-23T09:18:52;3.17;;;2.22;;
66494;SDS011;53319;51.982;5.916;2022-07-23T09:21:23;5.72;;;3.38;;
66494;SDS011;53319;51.982;5.916;2022-07-23T09:23:55;2.92;;;1.95;;
66494;SDS011;53319;51.982;5.916;2022-07-23T09:26:27;5.05;;;2.58;;
66494;SDS011;53319;51.982;5.916;2022-07-23T09:28:59;3.92;;;2.40;;
66494;SDS011;53319;51.982;5.916;2022-07-23T09:31:41;3.90;;;2.00;;
66494;SDS011;53319;51.982;5.916;2022-07-23T09:34:13;5.85;;;2.40;;
66494;SDS011;53319;51.982;5.916;2022-07-23T09:36:44;3.90;;;2.78;;
66494;SDS011;53319;51.982;5.916;2022-07-23T09:39:15;5.72;;;2.45;;
66494;SDS011;53319;51.982;5.916;2022-07-23T09:41:52;4.70;;;2.28;;
66494;SDS011;53319;51.982;5.916;2022-07-23T09:44:21;3.42;;;2.10;;
66494;SDS011;53319;51.982;5.916;2022-07-23T09:46:57;2.75;;;2.00;;
66494;SDS011;53319;51.982;5.916;2022-07-23T09:49:27;4.93;;;1.95;;
66494;SDS011;53319;51.982;5.916;2022-07-23T09:51:57;2.63;;;1.88;;
66494;SDS011;53319;51.982;5.916;2022-07-23T09:54:29;5.97;;;2.43;;
66494;SDS011;53319;51.982;5.916;2022-07-23T09:57:02;4.35;;;3.22;;
66494;SDS011;53319;51.982;5.916;2022-07-23T09:59:36;3.47;;;2.53;;
66494;SDS011;53319;51.982;5.916;2022-07-23T10:02:09;5.35;;;2.60;;
66494;SDS011;53319;51.982;5.916;2022-07-23T10:05:09;5.75;;;2.50;;
66494;SDS011;53319;51.982;5.916;2022-07-23T10:08:13;3.25;;;2.50;;
66494;SDS011;53319;51.982;5.916;2022-07-23T10:11:05;5.75;;;2.67;;
66494;SDS011;53319;51.982;5.916;2022-07-23T10:13:53;5.45;;;3.05;;
66494;SDS011;53319;51.982;5.916;2022-07-23T10:16:38;5.72;;;2.95;;
66494;SDS011;53319;51.982;5.916;2022-07-23T10:19:10;3.80;;;2.60;;
66494;SDS011;53319;51.982;5.916;2022-07-23T10:21:40;6.40;;;2.22;;
66494;SDS011;53319;51.982;5.916;2022-07-23T10:24:16;8.05;;;2.35;;
66494;SDS011;53319;51.982;5.916;2022-07-23T10:26:57;2.35;;;1.90;;
66494;SDS011;53319;51.982;5.916;2022-07-23T10:29:36;14.60;;;3.28;;
66494;SDS011;53319;51.982;5.916;2022-07-23T10:37:25;4.30;;;2.50;;
66494;SDS011;53319;51.982;5.916;2022-07-23T10:40:13;4.35;;;2.50;;
66494;SDS011;53319;51.982;5.916;2022-07-23T10:42:44;5.78;;;2.85;;
66494;SDS011;53319;51.982;5.916;2022-07-23T10:45:28;6.53;;;2.80;;
66494;SDS011;53319;51.982;5.916;2022-07-23T10:48:14;5.38;;;2.70;;
66494;SDS011;53319;51.982;5.916;2022-07-23T10:59:18;4.13;;;2.80;;
66494;SDS011;53319;51.982;5.916;2022-07-23T11:01:46;4.50;;;2.55;;
66494;SDS011;53319;51.982;5.916;2022-07-23T11:04:16;3.90;;;2.45;;
66494;SDS011;53319;51.982;5.916;2022-07-23T11:09:40;4.60;;;2.70;;
66494;SDS011;53319;51.982;5.916;2022-07-23T11:15:02;4.15;;;3.42;;
66494;SDS011;53319;51.982;5.916;2022-07-23T11:17:34;4.82;;;2.95;;
66494;SDS011;53319;51.982;5.916;2022-07-23T11:20:14;5.55;;;3.17;;
66494;SDS011;53319;51.982;5.916;2022-07-23T11:22:54;4.35;;;2.42;;
66494;SDS011;53319;51.982;5.916;2022-07-23T11:25:31;3.65;;;2.60;;
66494;SDS011;53319;51.982;5.916;2022-07-23T11:28:09;4.45;;;2.42;;
66494;SDS011;53319;51.982;5.916;2022-07-23T11:30:41;3.70;;;2.58;;
66494;SDS011;53319;51.982;5.916;2022-07-23T11:33:20;3.45;;;2.40;;
66494;SDS011;53319;51.982;5.916;2022-07-23T11:35:59;3.33;;;2.50;;
66494;SDS011;53319;51.982;5.916;2022-07-23T11:38:33;5.13;;;2.83;;
66494;SDS011;53319;51.982;5.916;2022-07-23T11:41:03;3.78;;;2.63;;
66494;SDS011;53319;51.982;5.916;2022-07-23T11:43:33;4.47;;;2.60;;
66494;SDS011;53319;51.982;5.916;2022-07-23T11:46:05;3.60;;;2.42;;
66494;SDS011;53319;51.982;5.916;2022-07-23T11:48:38;6.07;;;2.35;;
66494;SDS011;53319;51.982;5.916;2022-07-23T11:51:07;5.88;;;2.55;;
66494;SDS011;53319;51.982;5.916;2022-07-23T11:53:38;5.65;;;2.60;;
66494;SDS011;53319;51.982;5.916;2022-07-23T11:56:07;4.25;;;2.60;;
66494;SDS011;53319;51.982;5.916;2022-07-23T11:58:38;5.05;;;2.42;;
66494;SDS011;53319;51.982;5.916;2022-07-23T12:01:23;4.55;;;2.50;;
66494;SDS011;53319;51.982;5.916;2022-07-23T12:03:51;2.40;;;2.20;;
66494;SDS011;53319;51.982;5.916;2022-07-23T12:06:20;4.65;;;2.63;;
66494;SDS011;53319;51.982;5.916;2022-07-23T12:08:52;3.00;;;2.70;;
66494;SDS011;53319;51.982;5.916;2022-07-23T12:11:21;4.85;;;2.45;;
66494;SDS011;53319;51.982;5.916;2022-07-23T12:13:55;4.93;;;2.90;;
66494;SDS011;53319;51.982;5.916;2022-07-23T12:16:25;5.60;;;2.88;;
66494;SDS011;53319;51.982;5.916;2022-07-23T12:18:54;3.75;;;2.70;;
66494;SDS011;53319;51.982;5.916;2022-07-23T12:21:24;4.15;;;2.50;;
66494;SDS011;53319;51.982;5.916;2022-07-23T12:24:07;4.50;;;2.60;;
66494;SDS011;53319;51.982;5.916;2022-07-23T12:26:37;3.25;;;2.45;;
66494;SDS011;53319;51.982;5.916;2022-07-23T12:29:05;4.47;;;2.83;;
66494;SDS011;53319;51.982;5.916;2022-07-23T12:31:34;5.28;;;2.75;;
66494;SDS011;53319;51.982;5.916;2022-07-23T12:34:12;6.53;;;2.78;;
66494;SDS011;53319;51.982;5.916;2022-07-23T12:36:42;4.82;;;3.17;;
66494;SDS011;53319;51.982;5.916;2022-07-23T12:39:14;4.47;;;2.70;;
66494;SDS011;53319;51.982;5.916;2022-07-23T12:41:58;3.58;;;2.53;;
66494;SDS011;53319;51.982;5.916;2022-07-23T12:44:26;7.80;;;3.30;;
66494;SDS011;53319;51.982;5.916;2022-07-23T12:46:55;3.28;;;2.50;;
66494;SDS011;53319;51.982;5.916;2022-07-23T12:49:25;5.50;;;2.80;;
66494;SDS011;53319;51.982;5.916;2022-07-23T12:51:54;3.85;;;2.60;;
66494;SDS011;53319;51.982;5.916;2022-07-23T12:54:28;5.28;;;2.25;;
66494;SDS011;53319;51.982;5.916;2022-07-23T12:56:57;4.57;;;2.72;;
66494;SDS011;53319;51.982;5.916;2022-07-23T12:59:26;4.93;;;2.63;;
66494;SDS011;53319;51.982;5.916;2022-07-23T13:01:59;5.32;;;2.60;;
66494;SDS011;53319;51.982;5.916;2022-07-23T13:04:28;3.92;;;2.53;;
66494;SDS011;53319;51.982;5.916;2022-07-23T13:06:59;4.35;;;2.72;;
66494;SDS011;53319;51.982;5.916;2022-07-23T13:09:32;8.93;;;2.70;;
66494;SDS011;53319;51.982;5.916;2022-07-23T13:12:02;4.15;;;2.45;;
66494;SDS011;53319;51.982;5.916;2022-07-23T13:14:31;5.45;;;2.83;;
66494;SDS011;53319;51.982;5.916;2022-07-23T13:17:00;4.60;;;2.50;;
66494;SDS011;53319;51.982;5.916;2022-07-23T13:19:29;5.15;;;2.60;;
66494;SDS011;53319;51.982;5.916;2022-07-23T13:21:58;3.92;;;2.40;;
66494;SDS011;53319;51.982;5.916;2022-07-23T13:24:27;4.45;;;2.40;;
66494;SDS011;53319;51.982;5.916;2022-07-23T13:26:58;2.90;;;2.35;;
66494;SDS011;53319;51.982;5.916;2022-07-23T13:29:27;2.45;;;2.20;;
66494;SDS011;53319;51.982;5.916;2022-07-23T13:31:56;4.93;;;2.63;;
66494;SDS011;53319;51.982;5.916;2022-07-23T13:34:25;4.55;;;2.72;;
66494;SDS011;53319;51.982;5.916;2022-07-23T13:36:54;5.75;;;2.72;;
66494;SDS011;53319;51.982;5.916;2022-07-23T13:39:23;4.20;;;2.80;;
66494;SDS011;53319;51.982;5.916;2022-07-23T13:41:52;5.10;;;3.08;;
66494;SDS011;53319;51.982;5.916;2022-07-23T13:44:23;4.10;;;2.58;;
66494;SDS011;53319;51.982;5.916;2022-07-23T13:46:52;3.47;;;2.60;;
66494;SDS011;53319;51.982;5.916;2022-07-23T13:49:21;3.08;;;2.50;;
66494;SDS011;53319;51.982;5.916;2022-07-23T13:51:50;3.00;;;2.35;;
66494;SDS011;53319;51.982;5.916;2022-07-23T13:54:19;2.70;;;2.20;;
66494;SDS011;53319;51.982;5.916;2022-07-23T13:56:48;4.32;;;2.60;;
66494;SDS011;53319;51.982;5.916;2022-07-23T13:59:17;5.13;;;2.47;;
66494;SDS011;53319;51.982;5.916;2022-07-23T14:01:48;3.67;;;2.60;;
66494;SDS011;53319;51.982;5.916;2022-07-23T14:04:18;4.90;;;2.30;;
66494;SDS011;53319;51.982;5.916;2022-07-23T14:06:46;4.65;;;2.60;;
66494;SDS011;53319;51.982;5.916;2022-07-23T14:09:15;18.45;;;2.80;;
66494;SDS011;53319;51.982;5.916;2022-07-23T14:11:44;5.65;;;2.67;;
66494;SDS011;53319;51.982;5.916;2022-07-23T14:14:13;5.53;;;2.60;;
66494;SDS011;53319;51.982;5.916;2022-07-23T14:16:42;4.20;;;2.35;;
66494;SDS011;53319;51.982;5.916;2022-07-23T14:19:14;4.43;;;3.00;;
66494;SDS011;53319;51.982;5.916;2022-07-23T14:21:43;4.00;;;2.28;;
66494;SDS011;53319;51.982;5.916;2022-07-23T14:24:14;4.63;;;2.80;;
66494;SDS011;53319;51.982;5.916;2022-07-23T14:26:43;3.67;;;2.80;;
66494;SDS011;53319;51.982;5.916;2022-07-23T14:29:12;4.93;;;2.92;;
66494;SDS011;53319;51.982;5.916;2022-07-23T14:31:41;5.63;;;3.05;;
66494;SDS011;53319;51.982;5.916;2022-07-23T14:34:10;4.65;;;2.83;;
66494;SDS011;53319;51.982;5.916;2022-07-23T14:36:42;15.18;;;3.53;;
66494;SDS011;53319;51.982;5.916;2022-07-23T14:39:11;3.70;;;2.72;;
66494;SDS011;53319;51.982;5.916;2022-07-23T14:41:40;5.40;;;2.70;;
66494;SDS011;53319;51.982;5.916;2022-07-23T14:44:09;11.85;;;3.70;;
66494;SDS011;53319;51.982;5.916;2022-07-23T14:46:38;4.50;;;2.53;;
66494;SDS011;53319;51.982;5.916;2022-07-23T14:49:07;3.97;;;2.60;;
66494;SDS011;53319;51.982;5.916;2022-07-23T14:51:36;4.28;;;3.00;;
66494;SDS011;53319;51.982;5.916;2022-07-23T14:54:10;4.75;;;2.90;;
66494;SDS011;53319;51.982;5.916;2022-07-23T14:56:39;5.80;;;3.00;;
66494;SDS011;53319;51.982;5.916;2022-07-23T14:59:09;6.13;;;3.00;;
66494;SDS011;53319;51.982;5.916;2022-07-23T15:01:38;4.43;;;3.15;;
66494;SDS011;53319;51.982;5.916;2022-07-23T15:04:07;4.63;;;2.90;;
66494;SDS011;53319;51.982;5.916;2022-07-23T15:06:36;6.55;;;2.70;;
66494;SDS011;53319;51.982;5.916;2022-07-23T15:09:05;3.95;;;2.90;;
66494;SDS011;53319;51.982;5.916;2022-07-23T15:11:37;8.98;;;3.38;;
66494;SDS011;53319;51.982;5.916;2022-07-23T15:14:06;3.95;;;2.83;;
66494;SDS011;53319;51.982;5.916;2022-07-23T15:16:36;9.25;;;3.45;;
66494;SDS011;53319;51.982;5.916;2022-07-23T15:19:05;4.78;;;2.80;;
66494;SDS011;53319;51.982;5.916;2022-07-23T15:21:34;7.15;;;3.13;;
66494;SDS011;53319;51.982;5.916;2022-07-23T15:24:03;3.25;;;2.95;;
66494;SDS011;53319;51.982;5.916;2022-07-23T15:26:32;3.97;;;3.05;;
66494;SDS011;53319;51.982;5.916;2022-07-23T15:29:03;5.47;;;2.92;;